sensor_id;sensor_type;location;lat;lon;timestamp;P1;durP1;ratioP1;P2;durP2;ratioP2
31680;SDS011;18281;51.364;9.566;2023-04-25T00:00:48;3.72;;;1.20;;
31680;SDS011;18281;51.364;9.566;2023-04-25T00:03:15;1.08;;;1.00;;
31680;SDS011;18281;51.364;9.566;2023-04-25T00:05:41;3.20;;;1.30;;
31680;SDS011;18281;51.364;9.566;2023-04-25T00:08:06;1.50;;;1.35;;
31680;SDS011;18281;51.364;9.566;2023-04-25T00:10:32;1.85;;;1.25;;
31680;SDS011;18281;51.364;9.566;2023-04-25T00:12:57;3.95;;;1.50;;
31680;SDS011;18281;51.364;9.566;2023-04-25T00:15:23;2.42;;;1.27;;
31680;SDS011;18281;51.364;9.566;2023-04-25T00:17:49;2.97;;;1.33;;
31680;SDS011;18281;51.364;9.566;2023-04-25T00:20:14;1.48;;;1.35;;
31680;SDS011;18281;51.364;9.566;2023-04-25T00:22:40;1.55;;;1.45;;
31680;SDS011;18281;51.364;9.566;2023-04-25T00:25:06;6.03;;;1.20;;
31680;SDS011;18281;51.364;9.566;2023-04-25T00:27:32;3.28;;;1.60;;
31680;SDS011;18281;51.364;9.566;2023-04-25T00:29:57;2.45;;;1.50;;
31680;SDS011;18281;51.364;9.566;2023-04-25T00:32:23;1.92;;;1.40;;
31680;SDS011;18281;51.364;9.566;2023-04-25T00:34:48;2.05;;;1.65;;
31680;SDS011;18281;51.364;9.566;2023-04-25T00:37:14;2.60;;;1.30;;
31680;SDS011;18281;51.364;9.566;2023-04-25T00:39:39;2.25;;;1.27;;
31680;SDS011;18281;51.364;9.566;2023-04-25T00:42:04;2.50;;;1.58;;
31680;SDS011;18281;51.364;9.566;2023-04-25T00:44:30;4.38;;;1.60;;
31680;SDS011;18281;51.364;9.566;2023-04-25T00:46:57;1.60;;;1.30;;
31680;SDS011;18281;51.364;9.566;2023-04-25T00:49:22;1.90;;;1.25;;
31680;SDS011;18281;51.364;9.566;2023-04-25T00:51:47;2.05;;;1.33;;
31680;SDS011;18281;51.364;9.566;2023-04-25T00:54:13;3.05;;;1.58;;
31680;SDS011;18281;51.364;9.566;2023-04-25T00:56:39;2.67;;;1.52;;
31680;SDS011;18281;51.364;9.566;2023-04-25T00:59:05;3.15;;;1.40;;
31680;SDS011;18281;51.364;9.566;2023-04-25T01:01:30;5.00;;;1.70;;
31680;SDS011;18281;51.364;9.566;2023-04-25T01:03:57;2.78;;;1.38;;
31680;SDS011;18281;51.364;9.566;2023-04-25T01:06:23;2.22;;;1.55;;
31680;SDS011;18281;51.364;9.566;2023-04-25T01:08:49;5.65;;;1.80;;
31680;SDS011;18281;51.364;9.566;2023-04-25T01:11:15;2.85;;;1.70;;
31680;SDS011;18281;51.364;9.566;2023-04-25T01:13:41;2.13;;;1.40;;
31680;SDS011;18281;51.364;9.566;2023-04-25T01:16:06;2.53;;;1.52;;
31680;SDS011;18281;51.364;9.566;2023-04-25T01:18:32;2.78;;;1.55;;
31680;SDS011;18281;51.364;9.566;2023-04-25T01:21:02;4.03;;;1.55;;
31680;SDS011;18281;51.364;9.566;2023-04-25T01:23:35;1.60;;;1.50;;
31680;SDS011;18281;51.364;9.566;2023-04-25T01:26:02;1.58;;;1.48;;
31680;SDS011;18281;51.364;9.566;2023-04-25T01:28:28;5.55;;;2.00;;
31680;SDS011;18281;51.364;9.566;2023-04-25T01:30:53;2.88;;;1.52;;
31680;SDS011;18281;51.364;9.566;2023-04-25T01:33:20;5.10;;;2.28;;
31680;SDS011;18281;51.364;9.566;2023-04-25T01:35:46;2.63;;;1.90;;
31680;SDS011;18281;51.364;9.566;2023-04-25T01:38:12;4.75;;;2.03;;
31680;SDS011;18281;51.364;9.566;2023-04-25T01:40:38;4.07;;;1.92;;
31680;SDS011;18281;51.364;9.566;2023-04-25T01:43:05;4.30;;;2.03;;
31680;SDS011;18281;51.364;9.566;2023-04-25T01:45:31;3.13;;;2.10;;
31680;SDS011;18281;51.364;9.566;2023-04-25T01:47:56;2.83;;;1.98;;
31680;SDS011;18281;51.364;9.566;2023-04-25T01:50:24;2.55;;;1.90;;
31680;SDS011;18281;51.364;9.566;2023-04-25T01:52:50;4.78;;;2.50;;
31680;SDS011;18281;51.364;9.566;2023-04-25T01:55:16;2.15;;;2.00;;
31680;SDS011;18281;51.364;9.566;2023-04-25T01:57:41;2.35;;;1.90;;
31680;SDS011;18281;51.364;9.566;2023-04-25T02:00:07;3.92;;;2.20;;
31680;SDS011;18281;51.364;9.566;2023-04-25T02:02:34;3.08;;;2.35;;
31680;SDS011;18281;51.364;9.566;2023-04-25T02:05:00;3.03;;;2.25;;
31680;SDS011;18281;51.364;9.566;2023-04-25T02:07:25;3.80;;;2.30;;
31680;SDS011;18281;51.364;9.566;2023-04-25T02:09:51;4.18;;;2.25;;
31680;SDS011;18281;51.364;9.566;2023-04-25T02:12:18;2.90;;;2.20;;
31680;SDS011;18281;51.364;9.566;2023-04-25T02:14:43;4.22;;;2.40;;
31680;SDS011;18281;51.364;9.566;2023-04-25T02:17:08;4.05;;;2.80;;
31680;SDS011;18281;51.364;9.566;2023-04-25T02:19:34;3.72;;;2.65;;
31680;SDS011;18281;51.364;9.566;2023-04-25T02:21:59;3.78;;;2.40;;
31680;SDS011;18281;51.364;9.566;2023-04-25T02:24:25;6.25;;;2.95;;
31680;SDS011;18281;51.364;9.566;2023-04-25T02:26:50;5.47;;;2.78;;
31680;SDS011;18281;51.364;9.566;2023-04-25T02:29:15;5.20;;;2.83;;
31680;SDS011;18281;51.364;9.566;2023-04-25T02:31:41;4.65;;;2.67;;
31680;SDS011;18281;51.364;9.566;2023-04-25T02:34:07;3.80;;;2.30;;
31680;SDS011;18281;51.364;9.566;2023-04-25T02:36:32;6.32;;;3.58;;
31680;SDS011;18281;51.364;9.566;2023-04-25T02:38:59;6.95;;;2.80;;
31680;SDS011;18281;51.364;9.566;2023-04-25T02:41:25;7.13;;;2.80;;
31680;SDS011;18281;51.364;9.566;2023-04-25T02:43:51;6.28;;;2.67;;
31680;SDS011;18281;51.364;9.566;2023-04-25T02:46:16;5.30;;;3.30;;
31680;SDS011;18281;51.364;9.566;2023-04-25T02:48:42;8.00;;;3.22;;
31680;SDS011;18281;51.364;9.566;2023-04-25T02:51:07;5.43;;;2.67;;
31680;SDS011;18281;51.364;9.566;2023-04-25T02:53:32;6.32;;;2.92;;
31680;SDS011;18281;51.364;9.566;2023-04-25T02:55:59;4.68;;;3.08;;
31680;SDS011;18281;51.364;9.566;2023-04-25T02:58:24;4.40;;;2.70;;
31680;SDS011;18281;51.364;9.566;2023-04-25T03:00:50;5.20;;;3.30;;
31680;SDS011;18281;51.364;9.566;2023-04-25T03:03:15;6.68;;;3.17;;
31680;SDS011;18281;51.364;9.566;2023-04-25T03:05:43;4.68;;;2.78;;
31680;SDS011;18281;51.364;9.566;2023-04-25T03:08:08;3.60;;;2.90;;
31680;SDS011;18281;51.364;9.566;2023-04-25T03:10:34;5.32;;;2.95;;
31680;SDS011;18281;51.364;9.566;2023-04-25T03:12:59;3.83;;;2.90;;
31680;SDS011;18281;51.364;9.566;2023-04-25T03:15:24;4.00;;;3.28;;
31680;SDS011;18281;51.364;9.566;2023-04-25T03:17:50;5.28;;;3.25;;
31680;SDS011;18281;51.364;9.566;2023-04-25T03:20:15;6.75;;;3.10;;
31680;SDS011;18281;51.364;9.566;2023-04-25T03:22:41;4.05;;;3.45;;
31680;SDS011;18281;51.364;9.566;2023-04-25T03:25:06;6.18;;;3.63;;
31680;SDS011;18281;51.364;9.566;2023-04-25T03:27:32;7.38;;;3.78;;
31680;SDS011;18281;51.364;9.566;2023-04-25T03:29:58;8.25;;;4.50;;
31680;SDS011;18281;51.364;9.566;2023-04-25T03:32:23;9.25;;;4.43;;
31680;SDS011;18281;51.364;9.566;2023-04-25T03:34:48;6.47;;;4.60;;
31680;SDS011;18281;51.364;9.566;2023-04-25T03:37:14;8.27;;;4.75;;
31680;SDS011;18281;51.364;9.566;2023-04-25T03:39:39;8.60;;;4.57;;
31680;SDS011;18281;51.364;9.566;2023-04-25T03:42:04;8.68;;;4.50;;
31680;SDS011;18281;51.364;9.566;2023-04-25T03:44:30;8.93;;;4.57;;
31680;SDS011;18281;51.364;9.566;2023-04-25T03:46:55;7.38;;;4.10;;
31680;SDS011;18281;51.364;9.566;2023-04-25T03:49:20;7.15;;;4.50;;
31680;SDS011;18281;51.364;9.566;2023-04-25T03:51:46;6.43;;;4.35;;
31680;SDS011;18281;51.364;9.566;2023-04-25T03:54:11;9.05;;;4.35;;
31680;SDS011;18281;51.364;9.566;2023-04-25T03:56:36;8.43;;;4.32;;
31680;SDS011;18281;51.364;9.566;2023-04-25T03:59:02;6.50;;;3.78;;
31680;SDS011;18281;51.364;9.566;2023-04-25T04:01:27;6.25;;;4.70;;
31680;SDS011;18281;51.364;9.566;2023-04-25T04:03:52;6.68;;;3.83;;
31680;SDS011;18281;51.364;9.566;2023-04-25T04:06:17;7.70;;;4.03;;
31680;SDS011;18281;51.364;9.566;2023-04-25T04:08:43;7.43;;;3.88;;
31680;SDS011;18281;51.364;9.566;2023-04-25T04:11:09;7.05;;;3.80;;
31680;SDS011;18281;51.364;9.566;2023-04-25T04:13:34;7.57;;;3.35;;
31680;SDS011;18281;51.364;9.566;2023-04-25T04:15:59;6.57;;;3.25;;
31680;SDS011;18281;51.364;9.566;2023-04-25T04:18:25;5.65;;;3.33;;
31680;SDS011;18281;51.364;9.566;2023-04-25T04:20:50;5.72;;;3.05;;
31680;SDS011;18281;51.364;9.566;2023-04-25T04:23:15;6.88;;;3.28;;
31680;SDS011;18281;51.364;9.566;2023-04-25T04:25:41;8.63;;;3.20;;
31680;SDS011;18281;51.364;9.566;2023-04-25T04:28:06;5.32;;;3.20;;
31680;SDS011;18281;51.364;9.566;2023-04-25T04:30:32;8.40;;;3.30;;
31680;SDS011;18281;51.364;9.566;2023-04-25T04:32:58;4.38;;;3.20;;
31680;SDS011;18281;51.364;9.566;2023-04-25T04:35:23;6.03;;;3.45;;
31680;SDS011;18281;51.364;9.566;2023-04-25T04:37:49;4.60;;;3.58;;
31680;SDS011;18281;51.364;9.566;2023-04-25T04:40:15;7.38;;;3.47;;
31680;SDS011;18281;51.364;9.566;2023-04-25T04:42:41;5.43;;;3.03;;
31680;SDS011;18281;51.364;9.566;2023-04-25T04:45:08;3.50;;;3.08;;
31680;SDS011;18281;51.364;9.566;2023-04-25T04:47:34;6.13;;;3.25;;
31680;SDS011;18281;51.364;9.566;2023-04-25T04:50:02;5.22;;;3.47;;
31680;SDS011;18281;51.364;9.566;2023-04-25T04:52:28;6.93;;;3.50;;
31680;SDS011;18281;51.364;9.566;2023-04-25T04:54:53;4.20;;;3.17;;
31680;SDS011;18281;51.364;9.566;2023-04-25T04:57:18;8.75;;;3.55;;
31680;SDS011;18281;51.364;9.566;2023-04-25T04:59:44;5.35;;;3.38;;
31680;SDS011;18281;51.364;9.566;2023-04-25T05:02:09;6.45;;;3.65;;
31680;SDS011;18281;51.364;9.566;2023-04-25T05:04:35;5.05;;;3.20;;
31680;SDS011;18281;51.364;9.566;2023-04-25T05:07:00;4.80;;;3.20;;
31680;SDS011;18281;51.364;9.566;2023-04-25T05:09:26;5.50;;;3.10;;
31680;SDS011;18281;51.364;9.566;2023-04-25T05:11:52;8.02;;;3.72;;
31680;SDS011;18281;51.364;9.566;2023-04-25T05:14:17;7.25;;;2.97;;
31680;SDS011;18281;51.364;9.566;2023-04-25T05:16:43;5.55;;;3.60;;
31680;SDS011;18281;51.364;9.566;2023-04-25T05:19:08;7.75;;;4.00;;
31680;SDS011;18281;51.364;9.566;2023-04-25T05:21:34;5.95;;;3.65;;
31680;SDS011;18281;51.364;9.566;2023-04-25T05:23:59;8.18;;;4.25;;
31680;SDS011;18281;51.364;9.566;2023-04-25T05:26:25;11.63;;;4.50;;
31680;SDS011;18281;51.364;9.566;2023-04-25T05:28:50;6.60;;;3.55;;
31680;SDS011;18281;51.364;9.566;2023-04-25T05:31:16;7.85;;;3.42;;
31680;SDS011;18281;51.364;9.566;2023-04-25T05:33:41;10.90;;;4.00;;
31680;SDS011;18281;51.364;9.566;2023-04-25T05:36:07;12.20;;;4.60;;
31680;SDS011;18281;51.364;9.566;2023-04-25T05:38:32;6.68;;;4.22;;
31680;SDS011;18281;51.364;9.566;2023-04-25T05:40:58;5.32;;;3.53;;
31680;SDS011;18281;51.364;9.566;2023-04-25T05:43:23;7.13;;;3.92;;
31680;SDS011;18281;51.364;9.566;2023-04-25T05:45:48;6.38;;;3.90;;
31680;SDS011;18281;51.364;9.566;2023-04-25T05:48:14;10.02;;;4.55;;
31680;SDS011;18281;51.364;9.566;2023-04-25T05:50:39;10.52;;;4.80;;
31680;SDS011;18281;51.364;9.566;2023-04-25T05:53:05;7.85;;;3.67;;
31680;SDS011;18281;51.364;9.566;2023-04-25T05:55:30;4.32;;;3.75;;
31680;SDS011;18281;51.364;9.566;2023-04-25T05:57:56;9.80;;;4.72;;
31680;SDS011;18281;51.364;9.566;2023-04-25T06:00:21;4.50;;;3.30;;
31680;SDS011;18281;51.364;9.566;2023-04-25T06:02:47;3.80;;;2.97;;
31680;SDS011;18281;51.364;9.566;2023-04-25T06:05:13;6.13;;;2.95;;
31680;SDS011;18281;51.364;9.566;2023-04-25T06:07:38;4.15;;;2.80;;
31680;SDS011;18281;51.364;9.566;2023-04-25T06:10:04;3.53;;;2.60;;
31680;SDS011;18281;51.364;9.566;2023-04-25T06:12:31;6.53;;;3.45;;
31680;SDS011;18281;51.364;9.566;2023-04-25T06:14:59;5.63;;;2.80;;
31680;SDS011;18281;51.364;9.566;2023-04-25T06:17:25;3.70;;;2.50;;
31680;SDS011;18281;51.364;9.566;2023-04-25T06:19:51;3.83;;;2.38;;
31680;SDS011;18281;51.364;9.566;2023-04-25T06:22:18;2.90;;;2.13;;
31680;SDS011;18281;51.364;9.566;2023-04-25T06:24:44;2.83;;;2.33;;
31680;SDS011;18281;51.364;9.566;2023-04-25T06:27:10;4.78;;;2.40;;
31680;SDS011;18281;51.364;9.566;2023-04-25T06:29:36;2.28;;;1.73;;
31680;SDS011;18281;51.364;9.566;2023-04-25T06:32:01;2.35;;;1.40;;
31680;SDS011;18281;51.364;9.566;2023-04-25T06:34:26;1.80;;;1.30;;
31680;SDS011;18281;51.364;9.566;2023-04-25T06:36:52;2.00;;;1.55;;
31680;SDS011;18281;51.364;9.566;2023-04-25T06:39:17;3.17;;;1.23;;
31680;SDS011;18281;51.364;9.566;2023-04-25T06:41:42;2.88;;;1.85;;
31680;SDS011;18281;51.364;9.566;2023-04-25T06:44:08;1.63;;;1.30;;
31680;SDS011;18281;51.364;9.566;2023-04-25T06:46:33;1.40;;;1.30;;
31680;SDS011;18281;51.364;9.566;2023-04-25T06:48:59;4.25;;;1.50;;
31680;SDS011;18281;51.364;9.566;2023-04-25T06:51:24;2.20;;;1.20;;
31680;SDS011;18281;51.364;9.566;2023-04-25T06:53:53;2.00;;;1.00;;
31680;SDS011;18281;51.364;9.566;2023-04-25T06:56:18;2.15;;;1.30;;
31680;SDS011;18281;51.364;9.566;2023-04-25T06:58:44;3.97;;;1.38;;
31680;SDS011;18281;51.364;9.566;2023-04-25T07:01:09;2.58;;;1.55;;
31680;SDS011;18281;51.364;9.566;2023-04-25T07:03:35;5.28;;;1.75;;
31680;SDS011;18281;51.364;9.566;2023-04-25T07:06:02;3.28;;;1.73;;
31680;SDS011;18281;51.364;9.566;2023-04-25T07:08:28;4.70;;;1.63;;
31680;SDS011;18281;51.364;9.566;2023-04-25T07:10:54;2.92;;;1.70;;
31680;SDS011;18281;51.364;9.566;2023-04-25T07:13:19;2.90;;;1.92;;
31680;SDS011;18281;51.364;9.566;2023-04-25T07:15:45;8.20;;;2.58;;
31680;SDS011;18281;51.364;9.566;2023-04-25T07:18:10;5.13;;;1.75;;
31680;SDS011;18281;51.364;9.566;2023-04-25T07:20:35;8.98;;;1.83;;
31680;SDS011;18281;51.364;9.566;2023-04-25T07:23:01;8.98;;;2.17;;
31680;SDS011;18281;51.364;9.566;2023-04-25T07:25:26;6.72;;;2.05;;
31680;SDS011;18281;51.364;9.566;2023-04-25T07:27:51;8.43;;;2.35;;
31680;SDS011;18281;51.364;9.566;2023-04-25T07:30:17;11.25;;;2.33;;
31680;SDS011;18281;51.364;9.566;2023-04-25T07:32:42;7.47;;;2.53;;
31680;SDS011;18281;51.364;9.566;2023-04-25T07:35:08;8.77;;;1.90;;
31680;SDS011;18281;51.364;9.566;2023-04-25T07:37:33;11.20;;;2.53;;
31680;SDS011;18281;51.364;9.566;2023-04-25T07:39:59;10.80;;;2.47;;
31680;SDS011;18281;51.364;9.566;2023-04-25T07:42:25;6.40;;;2.35;;
31680;SDS011;18281;51.364;9.566;2023-04-25T07:44:50;8.13;;;2.42;;
31680;SDS011;18281;51.364;9.566;2023-04-25T07:47:16;9.98;;;3.30;;
31680;SDS011;18281;51.364;9.566;2023-04-25T07:49:43;16.45;;;3.33;;
31680;SDS011;18281;51.364;9.566;2023-04-25T07:52:10;10.45;;;2.50;;
31680;SDS011;18281;51.364;9.566;2023-04-25T07:54:35;8.88;;;2.38;;
31680;SDS011;18281;51.364;9.566;2023-04-25T07:57:00;9.57;;;3.20;;
31680;SDS011;18281;51.364;9.566;2023-04-25T07:59:27;9.05;;;3.15;;
31680;SDS011;18281;51.364;9.566;2023-04-25T08:01:52;10.23;;;2.50;;
31680;SDS011;18281;51.364;9.566;2023-04-25T08:04:18;7.72;;;2.70;;
31680;SDS011;18281;51.364;9.566;2023-04-25T08:06:43;12.00;;;2.90;;
31680;SDS011;18281;51.364;9.566;2023-04-25T08:09:09;11.88;;;3.15;;
31680;SDS011;18281;51.364;9.566;2023-04-25T08:11:35;7.13;;;2.75;;
31680;SDS011;18281;51.364;9.566;2023-04-25T08:14:01;10.57;;;2.50;;
31680;SDS011;18281;51.364;9.566;2023-04-25T08:16:26;14.52;;;2.85;;
31680;SDS011;18281;51.364;9.566;2023-04-25T08:18:52;9.88;;;2.60;;
31680;SDS011;18281;51.364;9.566;2023-04-25T08:21:17;13.65;;;2.95;;
31680;SDS011;18281;51.364;9.566;2023-04-25T08:23:43;8.80;;;2.40;;
31680;SDS011;18281;51.364;9.566;2023-04-25T08:26:08;11.25;;;2.75;;
31680;SDS011;18281;51.364;9.566;2023-04-25T08:28:33;9.48;;;2.42;;
31680;SDS011;18281;51.364;9.566;2023-04-25T08:30:59;11.57;;;2.47;;
31680;SDS011;18281;51.364;9.566;2023-04-25T08:33:25;6.05;;;2.25;;
31680;SDS011;18281;51.364;9.566;2023-04-25T08:35:50;8.65;;;2.50;;
31680;SDS011;18281;51.364;9.566;2023-04-25T08:38:16;9.38;;;2.35;;
31680;SDS011;18281;51.364;9.566;2023-04-25T08:40:42;10.50;;;2.35;;
31680;SDS011;18281;51.364;9.566;2023-04-25T08:43:09;8.52;;;2.30;;
31680;SDS011;18281;51.364;9.566;2023-04-25T08:45:41;10.88;;;2.72;;
31680;SDS011;18281;51.364;9.566;2023-04-25T08:48:07;13.18;;;2.40;;
31680;SDS011;18281;51.364;9.566;2023-04-25T08:50:38;14.45;;;1.90;;
31680;SDS011;18281;51.364;9.566;2023-04-25T08:53:05;8.88;;;2.10;;
31680;SDS011;18281;51.364;9.566;2023-04-25T08:55:34;8.73;;;2.77;;
31680;SDS011;18281;51.364;9.566;2023-04-25T08:58:03;9.98;;;2.10;;
31680;SDS011;18281;51.364;9.566;2023-04-25T09:00:30;12.65;;;2.75;;
31680;SDS011;18281;51.364;9.566;2023-04-25T09:02:56;10.75;;;2.38;;
31680;SDS011;18281;51.364;9.566;2023-04-25T09:05:22;17.15;;;2.33;;
31680;SDS011;18281;51.364;9.566;2023-04-25T09:07:48;7.28;;;1.83;;
31680;SDS011;18281;51.364;9.566;2023-04-25T09:10:13;6.72;;;1.70;;
31680;SDS011;18281;51.364;9.566;2023-04-25T09:12:39;10.90;;;2.30;;
31680;SDS011;18281;51.364;9.566;2023-04-25T09:15:08;11.40;;;2.05;;
31680;SDS011;18281;51.364;9.566;2023-04-25T09:17:35;9.45;;;2.00;;
31680;SDS011;18281;51.364;9.566;2023-04-25T09:22:34;10.95;;;1.80;;
31680;SDS011;18281;51.364;9.566;2023-04-25T09:25:07;8.82;;;2.15;;
31680;SDS011;18281;51.364;9.566;2023-04-25T09:27:34;11.27;;;2.10;;
31680;SDS011;18281;51.364;9.566;2023-04-25T09:30:00;10.10;;;1.55;;
31680;SDS011;18281;51.364;9.566;2023-04-25T09:32:25;7.80;;;1.75;;
31680;SDS011;18281;51.364;9.566;2023-04-25T09:34:55;7.05;;;1.55;;
31680;SDS011;18281;51.364;9.566;2023-04-25T09:37:22;4.63;;;1.60;;
31680;SDS011;18281;51.364;9.566;2023-04-25T09:39:49;10.90;;;1.88;;
31680;SDS011;18281;51.364;9.566;2023-04-25T09:42:28;10.02;;;1.92;;
31680;SDS011;18281;51.364;9.566;2023-04-25T09:44:56;6.63;;;1.80;;
31680;SDS011;18281;51.364;9.566;2023-04-25T09:47:22;10.48;;;2.08;;
31680;SDS011;18281;51.364;9.566;2023-04-25T09:49:51;11.23;;;2.60;;
31680;SDS011;18281;51.364;9.566;2023-04-25T09:52:18;5.75;;;1.70;;
31680;SDS011;18281;51.364;9.566;2023-04-25T09:54:45;6.10;;;2.05;;
31680;SDS011;18281;51.364;9.566;2023-04-25T09:57:18;8.23;;;2.08;;
31680;SDS011;18281;51.364;9.566;2023-04-25T09:59:46;9.98;;;1.70;;
31680;SDS011;18281;51.364;9.566;2023-04-25T10:02:16;9.48;;;2.20;;
31680;SDS011;18281;51.364;9.566;2023-04-25T10:04:50;6.45;;;2.10;;
31680;SDS011;18281;51.364;9.566;2023-04-25T10:07:19;11.80;;;2.35;;
31680;SDS011;18281;51.364;9.566;2023-04-25T10:09:50;10.00;;;3.08;;
31680;SDS011;18281;51.364;9.566;2023-04-25T10:12:24;11.23;;;2.35;;
31680;SDS011;18281;51.364;9.566;2023-04-25T10:14:50;11.10;;;2.60;;
31680;SDS011;18281;51.364;9.566;2023-04-25T10:17:16;7.28;;;2.17;;
31680;SDS011;18281;51.364;9.566;2023-04-25T10:19:42;10.77;;;2.13;;
31680;SDS011;18281;51.364;9.566;2023-04-25T10:22:09;6.88;;;1.77;;
31680;SDS011;18281;51.364;9.566;2023-04-25T10:24:39;6.38;;;1.85;;
31680;SDS011;18281;51.364;9.566;2023-04-25T10:27:06;10.35;;;1.90;;
31680;SDS011;18281;51.364;9.566;2023-04-25T10:29:32;5.13;;;1.60;;
31680;SDS011;18281;51.364;9.566;2023-04-25T10:31:57;3.60;;;0.88;;
31680;SDS011;18281;51.364;9.566;2023-04-25T10:34:23;7.05;;;1.50;;
31680;SDS011;18281;51.364;9.566;2023-04-25T10:37:03;5.65;;;2.22;;
31680;SDS011;18281;51.364;9.566;2023-04-25T10:39:28;4.10;;;1.50;;
31680;SDS011;18281;51.364;9.566;2023-04-25T10:41:57;3.50;;;1.38;;
31680;SDS011;18281;51.364;9.566;2023-04-25T10:44:27;4.85;;;1.40;;
31680;SDS011;18281;51.364;9.566;2023-04-25T10:46:54;6.57;;;1.38;;
31680;SDS011;18281;51.364;9.566;2023-04-25T10:49:28;5.18;;;1.40;;
31680;SDS011;18281;51.364;9.566;2023-04-25T11:00:15;5.95;;;1.40;;
31680;SDS011;18281;51.364;9.566;2023-04-25T11:02:46;4.85;;;1.23;;
31680;SDS011;18281;51.364;9.566;2023-04-25T11:07:58;3.08;;;1.55;;
31680;SDS011;18281;51.364;9.566;2023-04-25T11:10:31;7.00;;;1.77;;
31680;SDS011;18281;51.364;9.566;2023-04-25T11:13:00;5.07;;;1.45;;
31680;SDS011;18281;51.364;9.566;2023-04-25T11:15:25;5.63;;;1.20;;
31680;SDS011;18281;51.364;9.566;2023-04-25T11:17:52;4.80;;;1.20;;
31680;SDS011;18281;51.364;9.566;2023-04-25T11:20:24;3.97;;;1.13;;
31680;SDS011;18281;51.364;9.566;2023-04-25T11:22:53;5.30;;;0.98;;
31680;SDS011;18281;51.364;9.566;2023-04-25T11:25:22;2.87;;;1.20;;
31680;SDS011;18281;51.364;9.566;2023-04-25T11:30:24;2.72;;;1.08;;
31680;SDS011;18281;51.364;9.566;2023-04-25T11:32:51;4.22;;;0.85;;
31680;SDS011;18281;51.364;9.566;2023-04-25T11:35:19;3.60;;;0.80;;
31680;SDS011;18281;51.364;9.566;2023-04-25T11:37:46;4.72;;;1.15;;
31680;SDS011;18281;51.364;9.566;2023-04-25T11:40:12;5.22;;;0.93;;
31680;SDS011;18281;51.364;9.566;2023-04-25T11:42:45;2.78;;;1.15;;
31680;SDS011;18281;51.364;9.566;2023-04-25T11:45:11;2.80;;;1.00;;
31680;SDS011;18281;51.364;9.566;2023-04-25T11:47:38;4.50;;;1.15;;
31680;SDS011;18281;51.364;9.566;2023-04-25T11:50:04;7.20;;;1.35;;
31680;SDS011;18281;51.364;9.566;2023-04-25T11:52:39;5.00;;;1.10;;
31680;SDS011;18281;51.364;9.566;2023-04-25T11:55:23;6.55;;;1.00;;
31680;SDS011;18281;51.364;9.566;2023-04-25T11:57:49;5.60;;;1.10;;
31680;SDS011;18281;51.364;9.566;2023-04-25T12:00:19;4.38;;;1.10;;
31680;SDS011;18281;51.364;9.566;2023-04-25T12:02:46;2.13;;;1.13;;
31680;SDS011;18281;51.364;9.566;2023-04-25T12:05:14;4.60;;;1.15;;
31680;SDS011;18281;51.364;9.566;2023-04-25T12:07:41;4.53;;;1.35;;
31680;SDS011;18281;51.364;9.566;2023-04-25T12:12:52;5.70;;;1.30;;
31680;SDS011;18281;51.364;9.566;2023-04-25T12:15:23;3.38;;;1.10;;
31680;SDS011;18281;51.364;9.566;2023-04-25T12:21:06;2.88;;;0.88;;
31680;SDS011;18281;51.364;9.566;2023-04-25T12:23:32;2.47;;;1.10;;
31680;SDS011;18281;51.364;9.566;2023-04-25T12:25:57;4.40;;;1.35;;
31680;SDS011;18281;51.364;9.566;2023-04-25T12:28:23;3.95;;;1.25;;
31680;SDS011;18281;51.364;9.566;2023-04-25T12:31:04;2.50;;;0.90;;
31680;SDS011;18281;51.364;9.566;2023-04-25T12:33:33;4.13;;;1.38;;
31680;SDS011;18281;51.364;9.566;2023-04-25T12:36:01;3.30;;;1.02;;
31680;SDS011;18281;51.364;9.566;2023-04-25T12:38:39;3.78;;;1.42;;
31680;SDS011;18281;51.364;9.566;2023-04-25T12:41:06;5.07;;;1.15;;
31680;SDS011;18281;51.364;9.566;2023-04-25T12:43:32;4.93;;;1.10;;
31680;SDS011;18281;51.364;9.566;2023-04-25T12:45:58;5.60;;;1.27;;
31680;SDS011;18281;51.364;9.566;2023-04-25T12:48:24;4.93;;;1.30;;
31680;SDS011;18281;51.364;9.566;2023-04-25T12:50:51;5.20;;;1.60;;
31680;SDS011;18281;51.364;9.566;2023-04-25T12:53:20;4.38;;;1.10;;
31680;SDS011;18281;51.364;9.566;2023-04-25T12:55:47;4.55;;;1.10;;
31680;SDS011;18281;51.364;9.566;2023-04-25T12:58:13;3.45;;;1.20;;
31680;SDS011;18281;51.364;9.566;2023-04-25T13:00:43;3.90;;;1.00;;
31680;SDS011;18281;51.364;9.566;2023-04-25T13:03:10;4.75;;;1.02;;
31680;SDS011;18281;51.364;9.566;2023-04-25T13:05:37;4.22;;;1.30;;
31680;SDS011;18281;51.364;9.566;2023-04-25T13:08:03;3.13;;;1.30;;
31680;SDS011;18281;51.364;9.566;2023-04-25T13:10:31;5.10;;;1.30;;
31680;SDS011;18281;51.364;9.566;2023-04-25T13:12:58;4.25;;;1.15;;
31680;SDS011;18281;51.364;9.566;2023-04-25T13:15:26;4.43;;;1.30;;
31680;SDS011;18281;51.364;9.566;2023-04-25T13:17:52;3.47;;;1.15;;
31680;SDS011;18281;51.364;9.566;2023-04-25T13:20:19;4.63;;;0.80;;
31680;SDS011;18281;51.364;9.566;2023-04-25T13:25:13;6.97;;;1.23;;
31680;SDS011;18281;51.364;9.566;2023-04-25T13:27:38;3.20;;;1.13;;
31680;SDS011;18281;51.364;9.566;2023-04-25T13:30:05;4.80;;;1.08;;
31680;SDS011;18281;51.364;9.566;2023-04-25T13:32:34;2.13;;;1.10;;
31680;SDS011;18281;51.364;9.566;2023-04-25T13:35:02;4.30;;;1.17;;
31680;SDS011;18281;51.364;9.566;2023-04-25T13:37:34;4.40;;;1.00;;
31680;SDS011;18281;51.364;9.566;2023-04-25T13:40:04;4.97;;;0.95;;
31680;SDS011;18281;51.364;9.566;2023-04-25T13:42:35;2.17;;;1.20;;
31680;SDS011;18281;51.364;9.566;2023-04-25T13:45:03;4.43;;;1.30;;
31680;SDS011;18281;51.364;9.566;2023-04-25T13:47:29;4.35;;;1.15;;
31680;SDS011;18281;51.364;9.566;2023-04-25T13:49:55;3.65;;;1.05;;
31680;SDS011;18281;51.364;9.566;2023-04-25T13:52:21;4.38;;;1.30;;
31680;SDS011;18281;51.364;9.566;2023-04-25T13:54:48;2.55;;;0.90;;
31680;SDS011;18281;51.364;9.566;2023-04-25T13:57:18;4.65;;;1.38;;
31680;SDS011;18281;51.364;9.566;2023-04-25T13:59:43;3.45;;;1.30;;
31680;SDS011;18281;51.364;9.566;2023-04-25T14:02:10;2.97;;;1.13;;
31680;SDS011;18281;51.364;9.566;2023-04-25T14:04:36;3.67;;;1.20;;
31680;SDS011;18281;51.364;9.566;2023-04-25T14:07:02;4.65;;;1.05;;
31680;SDS011;18281;51.364;9.566;2023-04-25T14:09:29;4.63;;;1.08;;
31680;SDS011;18281;51.364;9.566;2023-04-25T14:11:55;2.95;;;0.90;;
31680;SDS011;18281;51.364;9.566;2023-04-25T14:14:24;2.70;;;1.20;;
31680;SDS011;18281;51.364;9.566;2023-04-25T14:16:52;6.60;;;1.27;;
31680;SDS011;18281;51.364;9.566;2023-04-25T14:19:19;3.95;;;1.45;;
31680;SDS011;18281;51.364;9.566;2023-04-25T14:24:14;4.03;;;1.30;;
31680;SDS011;18281;51.364;9.566;2023-04-25T14:26:42;7.55;;;2.50;;
31680;SDS011;18281;51.364;9.566;2023-04-25T14:29:08;2.83;;;1.20;;
31680;SDS011;18281;51.364;9.566;2023-04-25T14:31:37;2.45;;;1.17;;
31680;SDS011;18281;51.364;9.566;2023-04-25T14:34:03;2.65;;;0.95;;
31680;SDS011;18281;51.364;9.566;2023-04-25T14:36:29;6.97;;;1.35;;
31680;SDS011;18281;51.364;9.566;2023-04-25T14:38:56;1.52;;;0.95;;
31680;SDS011;18281;51.364;9.566;2023-04-25T14:41:22;4.40;;;1.17;;
31680;SDS011;18281;51.364;9.566;2023-04-25T14:43:48;2.90;;;1.10;;
31680;SDS011;18281;51.364;9.566;2023-04-25T14:46:14;3.97;;;1.27;;
31680;SDS011;18281;51.364;9.566;2023-04-25T14:48:40;4.47;;;1.13;;
31680;SDS011;18281;51.364;9.566;2023-04-25T14:51:05;2.40;;;1.13;;
31680;SDS011;18281;51.364;9.566;2023-04-25T14:53:31;2.05;;;0.88;;
31680;SDS011;18281;51.364;9.566;2023-04-25T14:55:57;4.18;;;1.30;;
31680;SDS011;18281;51.364;9.566;2023-04-25T14:58:22;4.28;;;0.90;;
31680;SDS011;18281;51.364;9.566;2023-04-25T15:00:47;2.85;;;0.90;;
31680;SDS011;18281;51.364;9.566;2023-04-25T15:03:13;2.45;;;0.90;;
31680;SDS011;18281;51.364;9.566;2023-04-25T15:05:39;3.00;;;1.55;;
31680;SDS011;18281;51.364;9.566;2023-04-25T15:08:05;2.45;;;1.08;;